createdAt,value
2016-11-29T00:00:26.319Z,1027.48
2016-11-29T00:01:05.103Z,1027.5
2016-11-29T00:01:43.891Z,1027.49
2016-11-29T00:02:22.670Z,1027.48
2016-11-29T00:03:01.448Z,1027.47
2016-11-29T00:03:40.228Z,1027.48
2016-11-29T00:04:19.008Z,1027.48
2016-11-29T00:04:57.787Z,1027.44
2016-11-29T00:05:36.563Z,1027.49
2016-11-29T00:06:15.376Z,1027.46
2016-11-29T00:06:54.151Z,1027.43
2016-11-29T00:07:32.937Z,1027.45
2016-11-29T00:08:11.723Z,1027.44
2016-11-29T00:08:50.500Z,1027.41
2016-11-29T00:09:29.283Z,1027.4
2016-11-29T00:10:08.058Z,1027.41
2016-11-29T00:10:46.840Z,1027.42
2016-11-29T00:11:25.618Z,1027.43
2016-11-29T00:12:04.402Z,1027.41
2016-11-29T00:12:43.179Z,1027.43
2016-11-29T00:13:21.963Z,1027.41
2016-11-29T00:14:00.757Z,1027.41
2016-11-29T00:14:39.534Z,1027.4
2016-11-29T00:15:18.312Z,1027.39
2016-11-29T00:15:57.211Z,1027.41
2016-11-29T00:16:35.992Z,1027.38
2016-11-29T00:17:14.777Z,1027.4
2016-11-29T00:17:53.563Z,1027.4
2016-11-29T00:18:32.364Z,1027.39
2016-11-29T00:19:11.142Z,1027.38
2016-11-29T00:19:49.926Z,1027.39
2016-11-29T00:20:28.714Z,1027.38
2016-11-29T00:21:07.491Z,1027.4
2016-11-29T00:21:46.269Z,1027.43
2016-11-29T00:22:25.046Z,1027.42
2016-11-29T00:23:03.829Z,1027.41
2016-11-29T00:23:42.610Z,1027.35
2016-11-29T00:24:21.391Z,1027.37
2016-11-29T00:25:00.170Z,1027.36
2016-11-29T00:25:38.958Z,1027.36
2016-11-29T00:26:17.737Z,1027.35
2016-11-29T00:26:56.517Z,1027.38
2016-11-29T00:27:35.301Z,1027.39
2016-11-29T00:28:14.088Z,1027.42
2016-11-29T00:28:52.868Z,1027.41
2016-11-29T00:29:31.653Z,1027.41
2016-11-29T00:30:10.437Z,1027.44
2016-11-29T00:30:49.228Z,1027.44
2016-11-29T00:31:28.008Z,1027.43
2016-11-29T00:32:06.799Z,1027.47
2016-11-29T00:32:45.647Z,1027.45
2016-11-29T00:33:24.426Z,1027.46
2016-11-29T00:34:03.237Z,1027.48
2016-11-29T00:34:42.014Z,1027.46
2016-11-29T00:35:20.793Z,1027.46
2016-11-29T00:35:59.575Z,1027.48
2016-11-29T00:36:38.354Z,1027.49
2016-11-29T00:37:17.157Z,1027.49
2016-11-29T00:37:55.939Z,1027.47
2016-11-29T00:38:34.713Z,1027.47
2016-11-29T00:39:13.492Z,1027.45
2016-11-29T00:39:52.273Z,1027.51
2016-11-29T00:40:31.086Z,1027.48
2016-11-29T00:41:09.871Z,1027.49
2016-11-29T00:41:48.659Z,1027.55
2016-11-29T00:42:27.436Z,1027.53
2016-11-29T00:43:06.218Z,1027.57
2016-11-29T00:43:45.005Z,1027.54
2016-11-29T00:44:23.816Z,1027.55
2016-11-29T00:45:02.612Z,1027.54
2016-11-29T00:45:41.398Z,1027.55
2016-11-29T00:46:20.178Z,1027.52
2016-11-29T00:46:58.953Z,1027.56
2016-11-29T00:47:37.770Z,1027.58
2016-11-29T00:48:16.556Z,1027.57
2016-11-29T00:48:55.339Z,1027.59
2016-11-29T00:49:34.120Z,1027.56
2016-11-29T00:50:12.899Z,1027.6
2016-11-29T00:50:51.682Z,1027.54
2016-11-29T00:51:30.469Z,1027.58
2016-11-29T00:52:09.248Z,1027.6
2016-11-29T00:52:48.029Z,1027.55
2016-11-29T00:53:26.808Z,1027.59
2016-11-29T00:54:05.594Z,1027.59
2016-11-29T00:54:44.373Z,1027.57
2016-11-29T00:55:23.150Z,1027.55
2016-11-29T00:56:01.935Z,1027.51
2016-11-29T00:56:41.068Z,1027.51
2016-11-29T00:57:19.853Z,1027.53
2016-11-29T00:57:58.637Z,1027.53
2016-11-29T00:58:37.416Z,1027.55
2016-11-29T00:59:16.198Z,1027.55
2016-11-29T00:59:55.333Z,1027.55
2016-11-29T01:00:34.124Z,1027.57
2016-11-29T01:01:12.907Z,1027.56
2016-11-29T01:01:51.687Z,1027.57
2016-11-29T01:02:30.479Z,1027.57
2016-11-29T01:03:09.262Z,1027.58
2016-11-29T01:03:48.042Z,1027.57
2016-11-29T01:04:26.821Z,1027.57
2016-11-29T01:05:05.607Z,1027.58
2016-11-29T01:05:44.390Z,1027.58
2016-11-29T01:06:23.277Z,1027.56
2016-11-29T01:07:02.069Z,1027.61
2016-11-29T01:07:41.199Z,1027.59
2016-11-29T01:08:19.986Z,1027.55
2016-11-29T01:08:58.769Z,1027.6
2016-11-29T01:09:37.552Z,1027.57
2016-11-29T01:10:16.333Z,1027.58
2016-11-29T01:10:55.115Z,1027.58
2016-11-29T01:11:33.893Z,1027.6
2016-11-29T01:12:12.673Z,1027.59
2016-11-29T01:12:51.821Z,1027.59
2016-11-29T01:13:30.950Z,1027.6
2016-11-29T01:14:09.734Z,1027.59
2016-11-29T01:14:48.519Z,1027.57
2016-11-29T01:15:27.332Z,1027.58
2016-11-29T01:16:06.114Z,1027.58
2016-11-29T01:16:44.896Z,1027.56
2016-11-29T01:17:23.679Z,1027.56
2016-11-29T01:18:02.489Z,1027.56
2016-11-29T01:18:41.270Z,1027.56
2016-11-29T01:19:20.051Z,1027.56
2016-11-29T01:19:58.864Z,1027.55
2016-11-29T01:20:37.647Z,1027.54
2016-11-29T01:21:16.430Z,1027.6
2016-11-29T01:21:55.211Z,1027.6
2016-11-29T01:22:33.998Z,1027.58
2016-11-29T01:23:13.185Z,1027.56
2016-11-29T01:23:51.963Z,1027.56
2016-11-29T01:24:30.741Z,1027.56
2016-11-29T01:25:09.527Z,1027.56
2016-11-29T01:25:48.309Z,1027.57
2016-11-29T01:26:27.089Z,1027.62
2016-11-29T01:27:05.872Z,1027.65
2016-11-29T01:27:44.651Z,1027.62
2016-11-29T01:28:23.433Z,1027.64
2016-11-29T01:29:02.211Z,1027.61
2016-11-29T01:29:40.988Z,1027.57
2016-11-29T01:30:19.767Z,1027.57
2016-11-29T01:30:58.552Z,1027.58
2016-11-29T01:31:37.335Z,1027.57
2016-11-29T01:32:16.114Z,1027.54
2016-11-29T01:32:54.892Z,1027.51
2016-11-29T01:33:33.675Z,1027.49
2016-11-29T01:34:12.453Z,1027.55
2016-11-29T01:34:51.233Z,1027.54
2016-11-29T01:35:30.017Z,1027.54
2016-11-29T01:36:08.798Z,1027.55
2016-11-29T01:36:47.580Z,1027.53
2016-11-29T01:37:26.365Z,1027.57
2016-11-29T01:38:05.148Z,1027.57
2016-11-29T01:38:43.925Z,1027.57
2016-11-29T01:39:22.704Z,1027.6
2016-11-29T01:40:01.484Z,1027.63
2016-11-29T01:40:40.261Z,1027.57
2016-11-29T01:41:19.045Z,1027.57
2016-11-29T01:41:57.830Z,1027.61
2016-11-29T01:42:36.610Z,1027.57
2016-11-29T01:43:15.391Z,1027.59
2016-11-29T01:43:54.167Z,1027.57
2016-11-29T01:44:32.945Z,1027.54
2016-11-29T01:45:11.727Z,1027.53
2016-11-29T01:45:50.507Z,1027.55
2016-11-29T01:46:29.320Z,1027.52
2016-11-29T01:47:08.101Z,1027.54
2016-11-29T01:47:47.233Z,1027.56
2016-11-29T01:48:26.012Z,1027.55
2016-11-29T01:49:04.794Z,1027.53
2016-11-29T01:49:43.572Z,1027.53
2016-11-29T01:50:22.355Z,1027.54
2016-11-29T01:51:01.133Z,1027.49
2016-11-29T01:51:39.944Z,1027.53
2016-11-29T01:52:18.725Z,1027.53
2016-11-29T01:52:57.498Z,1027.52
2016-11-29T01:53:36.275Z,1027.52
2016-11-29T01:54:15.051Z,1027.47
2016-11-29T01:54:53.860Z,1027.49
2016-11-29T01:55:32.641Z,1027.49
2016-11-29T01:56:11.418Z,1027.47
2016-11-29T01:56:50.194Z,1027.49
2016-11-29T01:57:28.981Z,1027.47
2016-11-29T01:58:07.766Z,1027.5
2016-11-29T01:58:46.548Z,1027.47
2016-11-29T01:59:25.325Z,1027.46
2016-11-29T02:00:04.104Z,1027.48
2016-11-29T02:00:42.882Z,1027.46
2016-11-29T02:01:21.659Z,1027.46
2016-11-29T02:02:00.440Z,1027.5
2016-11-29T02:02:39.220Z,1027.44
2016-11-29T02:03:17.997Z,1027.45
2016-11-29T02:03:56.775Z,1027.43
2016-11-29T02:04:35.556Z,1027.4
2016-11-29T02:05:14.363Z,1027.42
2016-11-29T02:05:53.139Z,1027.39
2016-11-29T02:06:31.920Z,1027.39
2016-11-29T02:07:10.702Z,1027.37
2016-11-29T02:07:49.483Z,1027.39
2016-11-29T02:08:28.264Z,1027.43
2016-11-29T02:09:07.050Z,1027.4
2016-11-29T02:09:45.837Z,1027.37
2016-11-29T02:10:24.615Z,1027.39
2016-11-29T02:11:03.398Z,1027.4
2016-11-29T02:11:42.181Z,1027.4
2016-11-29T02:12:20.971Z,1027.4
2016-11-29T02:13:00.093Z,1027.42
2016-11-29T02:13:38.872Z,1027.4
2016-11-29T02:14:17.654Z,1027.39
2016-11-29T02:14:56.434Z,1027.38
2016-11-29T02:15:35.570Z,1027.39
2016-11-29T02:16:14.698Z,1027.43
2016-11-29T02:16:53.484Z,1027.41
2016-11-29T02:17:32.277Z,1027.44
2016-11-29T02:18:11.060Z,1027.38
2016-11-29T02:18:49.837Z,1027.39
2016-11-29T02:19:28.616Z,1027.36
2016-11-29T02:20:07.748Z,1027.34
2016-11-29T02:20:46.525Z,1027.32
2016-11-29T02:21:25.310Z,1027.36
2016-11-29T02:22:04.086Z,1027.32
2016-11-29T02:22:42.872Z,1027.34
2016-11-29T02:23:21.653Z,1027.31
2016-11-29T02:24:00.435Z,1027.32
2016-11-29T02:24:39.582Z,1027.32
2016-11-29T02:25:18.364Z,1027.35
2016-11-29T02:25:57.167Z,1027.35
2016-11-29T02:26:35.947Z,1027.35
2016-11-29T02:27:14.728Z,1027.32
2016-11-29T02:27:53.508Z,1027.37
2016-11-29T02:28:32.286Z,1027.34
2016-11-29T02:29:11.087Z,1027.34
2016-11-29T02:29:49.866Z,1027.34
2016-11-29T02:30:28.648Z,1027.31
2016-11-29T02:31:07.447Z,1027.31
2016-11-29T02:31:46.231Z,1027.29
2016-11-29T02:32:25.020Z,1027.31
2016-11-29T02:33:03.800Z,1027.35
2016-11-29T02:33:42.574Z,1027.35
2016-11-29T02:34:21.357Z,1027.34
2016-11-29T02:35:00.138Z,1027.34
2016-11-29T02:35:38.919Z,1027.35
2016-11-29T02:36:17.702Z,1027.34
2016-11-29T02:36:56.833Z,1027.29
2016-11-29T02:37:35.618Z,1027.32
2016-11-29T02:38:14.397Z,1027.34
2016-11-29T02:38:53.180Z,1027.29
2016-11-29T02:39:31.962Z,1027.3
2016-11-29T02:40:10.744Z,1027.29
2016-11-29T02:40:49.525Z,1027.28
2016-11-29T02:41:28.305Z,1027.28
2016-11-29T02:42:07.450Z,1027.26
2016-11-29T02:42:46.230Z,1027.28
2016-11-29T02:43:25.011Z,1027.28
2016-11-29T02:44:03.790Z,1027.29
2016-11-29T02:44:42.570Z,1027.26
2016-11-29T02:45:21.383Z,1027.24
2016-11-29T02:46:00.160Z,1027.24
2016-11-29T02:46:38.946Z,1027.22
2016-11-29T02:47:17.726Z,1027.25
2016-11-29T02:47:56.505Z,1027.24
2016-11-29T02:48:35.289Z,1027.25
2016-11-29T02:49:14.066Z,1027.25
2016-11-29T02:49:52.845Z,1027.25
2016-11-29T02:50:31.624Z,1027.22
2016-11-29T02:51:10.401Z,1027.25
2016-11-29T02:51:49.176Z,1027.27
2016-11-29T02:52:27.952Z,1027.25
2016-11-29T02:53:07.085Z,1027.25
2016-11-29T02:53:45.867Z,1027.23
2016-11-29T02:54:24.677Z,1027.25
2016-11-29T02:55:03.825Z,1027.19
2016-11-29T02:55:42.604Z,1027.2
2016-11-29T02:56:21.382Z,1027.23
2016-11-29T02:57:00.162Z,1027.24
2016-11-29T02:57:38.977Z,1027.22
2016-11-29T02:58:17.754Z,1027.23
2016-11-29T02:58:56.540Z,1027.18
2016-11-29T02:59:35.319Z,1027.2
2016-11-29T03:00:14.100Z,1027.2
2016-11-29T03:00:52.881Z,1027.19
2016-11-29T03:01:31.664Z,1027.22
2016-11-29T03:02:10.443Z,1027.24
2016-11-29T03:02:49.224Z,1027.23
2016-11-29T03:03:28.005Z,1027.23
2016-11-29T03:04:06.781Z,1027.22
2016-11-29T03:04:45.559Z,1027.27
2016-11-29T03:05:24.334Z,1027.22
2016-11-29T03:06:03.114Z,1027.25
2016-11-29T03:06:41.895Z,1027.25
2016-11-29T03:07:20.676Z,1027.29
2016-11-29T03:07:59.453Z,1027.25
2016-11-29T03:08:38.235Z,1027.27
2016-11-29T03:09:17.049Z,1027.27
2016-11-29T03:09:55.830Z,1027.25
2016-11-29T03:10:34.608Z,1027.27
2016-11-29T03:11:13.383Z,1027.25
2016-11-29T03:11:52.158Z,1027.29
2016-11-29T03:12:30.942Z,1027.25
2016-11-29T03:13:09.729Z,1027.3
2016-11-29T03:13:48.514Z,1027.25
2016-11-29T03:14:27.294Z,1027.24
2016-11-29T03:15:06.073Z,1027.23
2016-11-29T03:15:44.855Z,1027.22
2016-11-29T03:16:23.665Z,1027.23
2016-11-29T03:17:02.457Z,1027.24
2016-11-29T03:17:41.241Z,1027.25
2016-11-29T03:18:20.029Z,1027.24
2016-11-29T03:18:58.811Z,1027.22
2016-11-29T03:19:37.944Z,1027.25
2016-11-29T03:20:16.721Z,1027.29
2016-11-29T03:20:55.497Z,1027.28
2016-11-29T03:21:34.303Z,1027.29
2016-11-29T03:22:13.080Z,1027.28
2016-11-29T03:22:51.860Z,1027.29
2016-11-29T03:23:30.642Z,1027.32
2016-11-29T03:24:09.422Z,1027.28
2016-11-29T03:24:48.228Z,1027.31
2016-11-29T03:25:27.012Z,1027.26
2016-11-29T03:26:05.786Z,1027.27
2016-11-29T03:26:44.570Z,1027.29
2016-11-29T03:27:23.345Z,1027.25
2016-11-29T03:28:02.123Z,1027.26
2016-11-29T03:28:40.905Z,1027.24
2016-11-29T03:29:19.691Z,1027.27
2016-11-29T03:29:58.476Z,1027.26
2016-11-29T03:30:37.611Z,1027.27
2016-11-29T03:31:16.392Z,1027.32
2016-11-29T03:31:55.180Z,1027.27
2016-11-29T03:32:33.960Z,1027.31
2016-11-29T03:33:12.738Z,1027.28
2016-11-29T03:33:51.518Z,1027.26
2016-11-29T03:34:30.316Z,1027.23
2016-11-29T03:35:09.096Z,1027.2
2016-11-29T03:35:47.874Z,1027.22
2016-11-29T03:36:26.669Z,1027.18
2016-11-29T03:37:05.445Z,1027.2
2016-11-29T03:37:44.230Z,1027.21
2016-11-29T03:38:23.013Z,1027.17
2016-11-29T03:39:02.148Z,1027.21
2016-11-29T03:39:40.931Z,1027.16
2016-11-29T03:40:19.713Z,1027.12
2016-11-29T03:40:58.491Z,1027.15
2016-11-29T03:41:37.272Z,1027.22
2016-11-29T03:42:16.053Z,1027.18
2016-11-29T03:42:54.832Z,1027.22
2016-11-29T03:43:33.608Z,1027.26
2016-11-29T03:44:12.385Z,1027.27
2016-11-29T03:44:51.164Z,1027.27
2016-11-29T03:45:29.947Z,1027.23
2016-11-29T03:46:08.729Z,1027.28
2016-11-29T03:46:47.515Z,1027.23
2016-11-29T03:47:26.298Z,1027.19
2016-11-29T03:48:05.081Z,1027.17
2016-11-29T03:48:43.863Z,1027.2
2016-11-29T03:49:22.643Z,1027.18
2016-11-29T03:50:01.424Z,1027.23
2016-11-29T03:50:40.555Z,1027.23
2016-11-29T03:51:19.333Z,1027.22
2016-11-29T03:51:58.111Z,1027.16
2016-11-29T03:52:36.891Z,1027.22
2016-11-29T03:53:15.669Z,1027.17
2016-11-29T03:53:54.458Z,1027.17
2016-11-29T03:54:33.244Z,1027.13
2016-11-29T03:55:12.024Z,1027.1
2016-11-29T03:55:50.805Z,1027.15
2016-11-29T03:56:29.588Z,1027.12
2016-11-29T03:57:08.371Z,1027.16
2016-11-29T03:57:47.157Z,1027.14
2016-11-29T03:58:25.933Z,1027.17
2016-11-29T03:59:04.710Z,1027.16
2016-11-29T03:59:43.491Z,1027.19
2016-11-29T04:00:22.269Z,1027.19
2016-11-29T04:01:01.042Z,1027.2
2016-11-29T04:01:39.822Z,1027.21
2016-11-29T04:02:18.610Z,1027.17
2016-11-29T04:02:57.390Z,1027.18
2016-11-29T04:03:36.167Z,1027.19
2016-11-29T04:04:14.947Z,1027.17
2016-11-29T04:04:53.727Z,1027.21
2016-11-29T04:05:32.503Z,1027.21
2016-11-29T04:06:11.281Z,1027.21
2016-11-29T04:06:50.061Z,1027.22
2016-11-29T04:07:28.841Z,1027.21
2016-11-29T04:08:07.653Z,1027.23
2016-11-29T04:08:46.434Z,1027.24
2016-11-29T04:09:25.218Z,1027.24
2016-11-29T04:10:04.038Z,1027.17
2016-11-29T04:10:42.826Z,1027.17
2016-11-29T04:11:21.605Z,1027.19
2016-11-29T04:12:00.387Z,1027.2
2016-11-29T04:12:39.169Z,1027.22
2016-11-29T04:13:17.947Z,1027.19
2016-11-29T04:13:56.735Z,1027.18
2016-11-29T04:14:35.517Z,1027.16
2016-11-29T04:15:14.297Z,1027.17
2016-11-29T04:15:53.079Z,1027.15
2016-11-29T04:16:31.857Z,1027.18
2016-11-29T04:17:10.635Z,1027.12
2016-11-29T04:17:49.417Z,1027.15
2016-11-29T04:18:28.208Z,1027.16
2016-11-29T04:19:06.987Z,1027.1
2016-11-29T04:19:45.766Z,1027.13
2016-11-29T04:20:24.547Z,1027.17
2016-11-29T04:21:03.330Z,1027.14
2016-11-29T04:21:42.113Z,1027.13
2016-11-29T04:22:20.902Z,1027.14
2016-11-29T04:22:59.688Z,1027.16
2016-11-29T04:23:38.471Z,1027.14
2016-11-29T04:24:17.358Z,1027.16
2016-11-29T04:24:56.135Z,1027.15
2016-11-29T04:25:34.915Z,1027.11
2016-11-29T04:26:13.694Z,1027.07
2016-11-29T04:26:52.475Z,1027.12
2016-11-29T04:27:31.612Z,1027.12
2016-11-29T04:28:10.391Z,1027.11
2016-11-29T04:28:49.173Z,1027.1
2016-11-29T04:29:27.954Z,1027.15
2016-11-29T04:30:06.734Z,1027.14
2016-11-29T04:30:45.517Z,1027.15
2016-11-29T04:31:24.299Z,1027.18
2016-11-29T04:32:03.077Z,1027.19
2016-11-29T04:32:41.859Z,1027.19
2016-11-29T04:33:20.644Z,1027.21
2016-11-29T04:33:59.420Z,1027.21
2016-11-29T04:34:38.204Z,1027.24
2016-11-29T04:35:16.992Z,1027.24
2016-11-29T04:35:55.770Z,1027.26
2016-11-29T04:36:34.552Z,1027.28
2016-11-29T04:37:13.329Z,1027.26
2016-11-29T04:37:52.108Z,1027.26
2016-11-29T04:38:30.923Z,1027.29
2016-11-29T04:39:09.701Z,1027.26
2016-11-29T04:39:48.482Z,1027.3
2016-11-29T04:40:27.265Z,1027.32
2016-11-29T04:41:06.044Z,1027.33
2016-11-29T04:41:44.825Z,1027.33
2016-11-29T04:42:23.603Z,1027.32
2016-11-29T04:43:02.382Z,1027.3
2016-11-29T04:43:41.189Z,1027.28
2016-11-29T04:44:19.967Z,1027.28
2016-11-29T04:44:58.747Z,1027.27
2016-11-29T04:45:37.534Z,1027.27
2016-11-29T04:46:16.325Z,1027.28
2016-11-29T04:46:55.107Z,1027.25
2016-11-29T04:47:34.250Z,1027.26
2016-11-29T04:48:13.065Z,1027.24
2016-11-29T04:48:51.845Z,1027.27
2016-11-29T04:49:30.669Z,1027.25
2016-11-29T04:50:09.449Z,1027.28
2016-11-29T04:50:48.226Z,1027.24
2016-11-29T04:51:27.004Z,1027.27
2016-11-29T04:52:05.786Z,1027.29
2016-11-29T04:52:44.564Z,1027.28
2016-11-29T04:53:23.338Z,1027.31
2016-11-29T04:54:02.115Z,1027.32
2016-11-29T04:54:40.918Z,1027.3
2016-11-29T04:55:19.701Z,1027.3
2016-11-29T04:55:58.482Z,1027.28
2016-11-29T04:56:37.259Z,1027.27
2016-11-29T04:57:16.071Z,1027.28
2016-11-29T04:57:54.849Z,1027.29
2016-11-29T04:58:33.631Z,1027.32
2016-11-29T04:59:12.407Z,1027.28
2016-11-29T04:59:51.185Z,1027.29
2016-11-29T05:00:29.971Z,1027.31
2016-11-29T05:01:08.747Z,1027.28
2016-11-29T05:01:47.526Z,1027.29
2016-11-29T05:02:26.303Z,1027.31
2016-11-29T05:03:05.085Z,1027.29
2016-11-29T05:03:43.869Z,1027.31
2016-11-29T05:04:22.655Z,1027.31
2016-11-29T05:05:01.430Z,1027.28
2016-11-29T05:05:40.207Z,1027.25
2016-11-29T05:06:18.992Z,1027.24
2016-11-29T05:06:57.769Z,1027.24
2016-11-29T05:07:36.550Z,1027.23
2016-11-29T05:08:15.372Z,1027.24
2016-11-29T05:08:54.151Z,1027.22
2016-11-29T05:09:32.932Z,1027.27
2016-11-29T05:10:11.741Z,1027.26
2016-11-29T05:10:50.526Z,1027.26
2016-11-29T05:11:29.306Z,1027.25
2016-11-29T05:12:08.081Z,1027.25
2016-11-29T05:12:46.865Z,1027.26
2016-11-29T05:13:25.642Z,1027.28
2016-11-29T05:14:04.423Z,1027.29
2016-11-29T05:14:43.231Z,1027.26
2016-11-29T05:15:22.011Z,1027.26
2016-11-29T05:16:00.798Z,1027.26
2016-11-29T05:16:39.574Z,1027.24
2016-11-29T05:17:18.357Z,1027.26
2016-11-29T05:17:57.133Z,1027.25
2016-11-29T05:18:35.914Z,1027.27
2016-11-29T05:19:14.692Z,1027.26
2016-11-29T05:19:53.474Z,1027.24
2016-11-29T05:20:32.254Z,1027.25
2016-11-29T05:21:11.033Z,1027.25
2016-11-29T05:21:49.814Z,1027.26
2016-11-29T05:22:28.601Z,1027.29
2016-11-29T05:23:07.380Z,1027.28
2016-11-29T05:23:46.163Z,1027.31
2016-11-29T05:24:24.940Z,1027.29
2016-11-29T05:25:03.719Z,1027.26
2016-11-29T05:25:42.498Z,1027.27
2016-11-29T05:26:21.274Z,1027.26
2016-11-29T05:27:00.051Z,1027.27
2016-11-29T05:27:38.828Z,1027.24
2016-11-29T05:28:17.642Z,1027.25
2016-11-29T05:28:56.423Z,1027.26
2016-11-29T05:29:35.201Z,1027.27
2016-11-29T05:30:13.979Z,1027.26
2016-11-29T05:30:52.759Z,1027.26
2016-11-29T05:31:31.540Z,1027.3
2016-11-29T05:32:10.323Z,1027.33
2016-11-29T05:32:49.099Z,1027.35
2016-11-29T05:33:27.884Z,1027.34
2016-11-29T05:34:06.663Z,1027.35
2016-11-29T05:34:45.450Z,1027.35
2016-11-29T05:35:24.232Z,1027.32
2016-11-29T05:36:03.015Z,1027.32
2016-11-29T05:36:41.793Z,1027.31
2016-11-29T05:37:20.572Z,1027.32
2016-11-29T05:37:59.353Z,1027.3
2016-11-29T05:38:38.131Z,1027.26
2016-11-29T05:39:16.919Z,1027.27
2016-11-29T05:39:55.697Z,1027.28
2016-11-29T05:40:34.482Z,1027.3
2016-11-29T05:41:13.270Z,1027.3
2016-11-29T05:41:52.048Z,1027.27
2016-11-29T05:42:30.828Z,1027.3
2016-11-29T05:43:09.605Z,1027.28
2016-11-29T05:43:48.386Z,1027.28
2016-11-29T05:44:27.166Z,1027.27
2016-11-29T05:45:05.950Z,1027.28
2016-11-29T05:45:44.733Z,1027.32
2016-11-29T05:46:23.530Z,1027.31
2016-11-29T05:47:02.310Z,1027.35
2016-11-29T05:47:41.092Z,1027.33
2016-11-29T05:48:19.868Z,1027.35
2016-11-29T05:48:58.651Z,1027.36
2016-11-29T05:49:37.433Z,1027.35
2016-11-29T05:50:16.216Z,1027.31
2016-11-29T05:50:54.992Z,1027.31
2016-11-29T05:51:33.770Z,1027.29
2016-11-29T05:52:12.551Z,1027.34
2016-11-29T05:52:51.334Z,1027.33
2016-11-29T05:53:30.152Z,1027.35
2016-11-29T05:54:08.934Z,1027.33
2016-11-29T05:54:47.715Z,1027.33
2016-11-29T05:55:26.493Z,1027.34
2016-11-29T05:56:05.270Z,1027.34
2016-11-29T05:56:44.057Z,1027.34
2016-11-29T05:57:22.837Z,1027.34
2016-11-29T05:58:01.625Z,1027.36
2016-11-29T05:58:40.407Z,1027.36
2016-11-29T05:59:19.191Z,1027.38
2016-11-29T05:59:57.966Z,1027.4
2016-11-29T06:00:36.754Z,1027.43
2016-11-29T06:01:15.548Z,1027.43
2016-11-29T06:01:54.325Z,1027.44
2016-11-29T06:02:33.110Z,1027.39
2016-11-29T06:03:11.891Z,1027.46
2016-11-29T06:03:50.688Z,1027.5
2016-11-29T06:04:29.472Z,1027.5
2016-11-29T06:05:08.254Z,1027.47
2016-11-29T06:05:47.030Z,1027.51
2016-11-29T06:06:25.811Z,1027.48
2016-11-29T06:07:04.596Z,1027.5
2016-11-29T06:07:43.380Z,1027.52
2016-11-29T06:08:22.172Z,1027.53
2016-11-29T06:09:00.950Z,1027.54
2016-11-29T06:09:39.737Z,1027.54
2016-11-29T06:10:18.517Z,1027.57
2016-11-29T06:10:57.295Z,1027.53
2016-11-29T06:11:36.074Z,1027.56
2016-11-29T06:12:14.852Z,1027.51
2016-11-29T06:12:53.634Z,1027.54
2016-11-29T06:13:32.414Z,1027.55
2016-11-29T06:14:11.196Z,1027.54
2016-11-29T06:14:49.979Z,1027.57
2016-11-29T06:15:28.770Z,1027.56
2016-11-29T06:16:07.545Z,1027.61
2016-11-29T06:16:46.325Z,1027.57
2016-11-29T06:17:25.101Z,1027.56
2016-11-29T06:18:03.906Z,1027.59
2016-11-29T06:18:42.684Z,1027.64
2016-11-29T06:19:21.466Z,1027.65
2016-11-29T06:20:00.244Z,1027.63
2016-11-29T06:20:39.024Z,1027.67
2016-11-29T06:21:18.160Z,1027.68
2016-11-29T06:21:56.937Z,1027.66
2016-11-29T06:22:35.730Z,1027.65
2016-11-29T06:23:14.515Z,1027.69
2016-11-29T06:23:53.645Z,1027.68
2016-11-29T06:24:32.424Z,1027.68
2016-11-29T06:25:11.205Z,1027.69
2016-11-29T06:25:49.986Z,1027.71
2016-11-29T06:26:28.768Z,1027.74
2016-11-29T06:27:07.545Z,1027.75
2016-11-29T06:27:46.324Z,1027.74
2016-11-29T06:28:25.102Z,1027.71
2016-11-29T06:29:03.887Z,1027.75
2016-11-29T06:29:42.663Z,1027.71
2016-11-29T06:30:21.443Z,1027.74
2016-11-29T06:31:00.224Z,1027.71
2016-11-29T06:31:39.002Z,1027.74
2016-11-29T06:32:17.809Z,1027.74
2016-11-29T06:32:56.586Z,1027.74
2016-11-29T06:33:35.365Z,1027.75
2016-11-29T06:34:14.172Z,1027.75
2016-11-29T06:34:52.953Z,1027.75
2016-11-29T06:35:31.730Z,1027.78
2016-11-29T06:36:10.510Z,1027.75
2016-11-29T06:36:49.293Z,1027.74
2016-11-29T06:37:28.071Z,1027.75
2016-11-29T06:38:06.847Z,1027.75
2016-11-29T06:38:45.627Z,1027.76
2016-11-29T06:39:24.405Z,1027.76
2016-11-29T06:40:03.183Z,1027.75
2016-11-29T06:40:41.958Z,1027.72
2016-11-29T06:41:21.093Z,1027.77
2016-11-29T06:41:59.875Z,1027.78
2016-11-29T06:42:38.656Z,1027.77
2016-11-29T06:43:17.441Z,1027.81
2016-11-29T06:43:56.218Z,1027.79
2016-11-29T06:44:34.995Z,1027.73
2016-11-29T06:45:13.781Z,1027.8
2016-11-29T06:45:52.558Z,1027.79
2016-11-29T06:46:31.341Z,1027.78
2016-11-29T06:47:10.115Z,1027.78
2016-11-29T06:47:48.901Z,1027.76
2016-11-29T06:48:27.687Z,1027.82
2016-11-29T06:49:06.463Z,1027.8
2016-11-29T06:49:45.247Z,1027.82
2016-11-29T06:50:24.029Z,1027.82
2016-11-29T06:51:02.810Z,1027.81
2016-11-29T06:51:41.619Z,1027.84
2016-11-29T06:52:20.395Z,1027.84
2016-11-29T06:52:59.182Z,1027.85
2016-11-29T06:53:37.961Z,1027.86
2016-11-29T06:54:16.773Z,1027.91
2016-11-29T06:54:55.557Z,1027.9
2016-11-29T06:55:34.340Z,1027.92
2016-11-29T06:56:13.122Z,1027.9
2016-11-29T06:56:51.899Z,1027.87
2016-11-29T06:57:31.070Z,1027.9
2016-11-29T06:58:09.853Z,1027.84
2016-11-29T06:58:48.639Z,1027.84
2016-11-29T06:59:27.415Z,1027.86
2016-11-29T07:00:06.194Z,1027.87
2016-11-29T07:00:44.970Z,1027.87
2016-11-29T07:01:23.751Z,1027.91
2016-11-29T07:02:02.528Z,1027.91
2016-11-29T07:02:41.313Z,1027.91
2016-11-29T07:03:20.092Z,1027.89
2016-11-29T07:03:58.868Z,1027.9
2016-11-29T07:04:37.652Z,1027.96
2016-11-29T07:05:16.424Z,1027.94
2016-11-29T07:05:55.204Z,1027.96
2016-11-29T07:06:33.990Z,1027.96
2016-11-29T07:07:12.774Z,1027.98
2016-11-29T07:07:51.555Z,1027.97
2016-11-29T07:08:30.333Z,1028.02
2016-11-29T07:09:09.110Z,1028.03
2016-11-29T07:09:47.886Z,1027.99
2016-11-29T07:10:26.681Z,1028.02
2016-11-29T07:11:05.466Z,1028.01
2016-11-29T07:11:44.242Z,1028.03
2016-11-29T07:12:23.052Z,1028.04
2016-11-29T07:13:02.188Z,1028
2016-11-29T07:13:40.971Z,1028.05
2016-11-29T07:14:19.749Z,1028.09
2016-11-29T07:14:58.533Z,1028.09
2016-11-29T07:15:37.309Z,1028.08
2016-11-29T07:16:16.085Z,1028.09
2016-11-29T07:16:54.865Z,1028.15
2016-11-29T07:17:33.997Z,1028.1
2016-11-29T07:18:12.781Z,1028.18
2016-11-29T07:18:51.565Z,1028.18
2016-11-29T07:19:30.355Z,1028.25
2016-11-29T07:20:09.134Z,1028.22
2016-11-29T07:20:47.914Z,1028.21
2016-11-29T07:21:26.700Z,1028.19
2016-11-29T07:22:05.506Z,1028.16
2016-11-29T07:22:44.285Z,1028.19
2016-11-29T07:23:23.066Z,1028.2
2016-11-29T07:24:01.874Z,1028.17
2016-11-29T07:24:40.655Z,1028.18
2016-11-29T07:25:19.434Z,1028.16
2016-11-29T07:25:58.213Z,1028.16
2016-11-29T07:26:36.992Z,1028.23
2016-11-29T07:27:15.777Z,1028.19
2016-11-29T07:27:54.553Z,1028.21
2016-11-29T07:28:33.707Z,1028.23
2016-11-29T07:29:12.489Z,1028.18
2016-11-29T07:29:51.296Z,1028.22
2016-11-29T07:30:30.079Z,1028.21
2016-11-29T07:31:08.883Z,1028.21
2016-11-29T07:31:47.660Z,1028.21
2016-11-29T07:32:26.444Z,1028.21
2016-11-29T07:33:05.232Z,1028.24
2016-11-29T07:33:44.022Z,1028.25
2016-11-29T07:34:22.806Z,1028.25
2016-11-29T07:35:01.585Z,1028.27
2016-11-29T07:35:40.362Z,1028.25
2016-11-29T07:36:19.140Z,1028.24
2016-11-29T07:36:57.924Z,1028.24
2016-11-29T07:37:36.774Z,1028.27
2016-11-29T07:38:15.551Z,1028.25
2016-11-29T07:38:54.333Z,1028.27
2016-11-29T07:39:33.119Z,1028.27
2016-11-29T07:40:11.896Z,1028.22
2016-11-29T07:40:50.677Z,1028.26
2016-11-29T07:41:29.464Z,1028.21
2016-11-29T07:42:08.240Z,1028.24
2016-11-29T07:42:47.021Z,1028.27
2016-11-29T07:43:25.815Z,1028.21
2016-11-29T07:44:04.593Z,1028.22
2016-11-29T07:44:43.373Z,1028.23
2016-11-29T07:45:22.160Z,1028.24
2016-11-29T07:46:00.940Z,1028.25
2016-11-29T07:46:39.720Z,1028.31
2016-11-29T07:47:18.499Z,1028.33
2016-11-29T07:47:57.279Z,1028.35
2016-11-29T07:48:36.060Z,1028.4
2016-11-29T07:49:14.845Z,1028.39
2016-11-29T07:49:53.622Z,1028.41
2016-11-29T07:50:32.405Z,1028.38